sensor_id;sensor_type;location;lat;lon;timestamp;P1;durP1;ratioP1;P2;durP2;ratioP2
36839;SDS011;24406;51.640;9.566;2023-04-25T00:01:28;14.23;;;7.72;;
36839;SDS011;24406;51.640;9.566;2023-04-25T00:06:30;13.52;;;6.43;;
36839;SDS011;24406;51.640;9.566;2023-04-25T00:11:33;14.30;;;6.30;;
36839;SDS011;24406;51.640;9.566;2023-04-25T00:16:35;13.32;;;6.70;;
36839;SDS011;24406;51.640;9.566;2023-04-25T00:21:36;13.50;;;6.10;;
36839;SDS011;24406;51.640;9.566;2023-04-25T00:26:41;14.60;;;6.80;;
36839;SDS011;24406;51.640;9.566;2023-04-25T00:31:43;10.38;;;6.50;;
36839;SDS011;24406;51.640;9.566;2023-04-25T00:36:44;10.93;;;6.57;;
36839;SDS011;24406;51.640;9.566;2023-04-25T00:41:47;11.77;;;6.10;;
36839;SDS011;24406;51.640;9.566;2023-04-25T00:46:53;15.85;;;7.82;;
36839;SDS011;24406;51.640;9.566;2023-04-25T00:51:55;17.95;;;7.30;;
36839;SDS011;24406;51.640;9.566;2023-04-25T00:56:58;22.30;;;9.30;;
36839;SDS011;24406;51.640;9.566;2023-04-25T01:02:00;13.00;;;7.97;;
36839;SDS011;24406;51.640;9.566;2023-04-25T01:07:02;15.77;;;8.23;;
36839;SDS011;24406;51.640;9.566;2023-04-25T01:12:05;14.57;;;8.20;;
36839;SDS011;24406;51.640;9.566;2023-04-25T01:17:08;14.10;;;8.40;;
36839;SDS011;24406;51.640;9.566;2023-04-25T01:22:11;20.95;;;8.98;;
36839;SDS011;24406;51.640;9.566;2023-04-25T01:27:12;12.15;;;8.07;;
36839;SDS011;24406;51.640;9.566;2023-04-25T01:32:14;20.70;;;9.52;;
36839;SDS011;24406;51.640;9.566;2023-04-25T01:37:17;16.63;;;8.95;;
36839;SDS011;24406;51.640;9.566;2023-04-25T01:42:19;23.10;;;9.45;;
36839;SDS011;24406;51.640;9.566;2023-04-25T01:47:20;15.75;;;8.82;;
36839;SDS011;24406;51.640;9.566;2023-04-25T01:52:23;12.88;;;7.22;;
36839;SDS011;24406;51.640;9.566;2023-04-25T01:57:25;14.63;;;8.68;;
36839;SDS011;24406;51.640;9.566;2023-04-25T02:02:27;15.50;;;8.45;;
36839;SDS011;24406;51.640;9.566;2023-04-25T02:07:31;15.32;;;9.07;;
36839;SDS011;24406;51.640;9.566;2023-04-25T02:12:33;16.55;;;8.65;;
36839;SDS011;24406;51.640;9.566;2023-04-25T02:17:47;18.50;;;9.38;;
36839;SDS011;24406;51.640;9.566;2023-04-25T02:22:50;18.73;;;10.00;;
36839;SDS011;24406;51.640;9.566;2023-04-25T02:27:52;22.98;;;12.40;;
36839;SDS011;24406;51.640;9.566;2023-04-25T02:32:53;22.30;;;11.50;;
36839;SDS011;24406;51.640;9.566;2023-04-25T02:37:56;25.40;;;10.35;;
36839;SDS011;24406;51.640;9.566;2023-04-25T02:42:58;19.85;;;10.95;;
36839;SDS011;24406;51.640;9.566;2023-04-25T02:48:00;20.77;;;11.20;;
36839;SDS011;24406;51.640;9.566;2023-04-25T02:53:07;17.98;;;11.25;;
36839;SDS011;24406;51.640;9.566;2023-04-25T02:58:15;16.88;;;10.48;;
36839;SDS011;24406;51.640;9.566;2023-04-25T03:03:23;22.55;;;11.43;;
36839;SDS011;24406;51.640;9.566;2023-04-25T03:08:27;19.90;;;10.93;;
36839;SDS011;24406;51.640;9.566;2023-04-25T03:13:33;20.63;;;10.53;;
36839;SDS011;24406;51.640;9.566;2023-04-25T03:18:35;25.33;;;11.45;;
36839;SDS011;24406;51.640;9.566;2023-04-25T03:23:38;16.92;;;11.35;;
36839;SDS011;24406;51.640;9.566;2023-04-25T03:28:41;22.05;;;11.30;;
36839;SDS011;24406;51.640;9.566;2023-04-25T03:33:43;14.40;;;9.75;;
36839;SDS011;24406;51.640;9.566;2023-04-25T03:38:46;15.07;;;10.02;;
36839;SDS011;24406;51.640;9.566;2023-04-25T03:43:49;18.25;;;11.32;;
36839;SDS011;24406;51.640;9.566;2023-04-25T03:48:51;23.15;;;12.93;;
36839;SDS011;24406;51.640;9.566;2023-04-25T03:53:58;18.13;;;12.13;;
36839;SDS011;24406;51.640;9.566;2023-04-25T03:59:06;17.27;;;11.52;;
36839;SDS011;24406;51.640;9.566;2023-04-25T04:04:08;16.67;;;12.05;;
36839;SDS011;24406;51.640;9.566;2023-04-25T04:09:11;19.92;;;12.38;;
36839;SDS011;24406;51.640;9.566;2023-04-25T04:14:15;18.40;;;12.10;;
36839;SDS011;24406;51.640;9.566;2023-04-25T04:19:19;17.05;;;13.27;;
36839;SDS011;24406;51.640;9.566;2023-04-25T04:24:30;17.02;;;13.25;;
36839;SDS011;24406;51.640;9.566;2023-04-25T04:29:36;16.10;;;12.68;;
36839;SDS011;24406;51.640;9.566;2023-04-25T04:34:48;15.75;;;12.73;;
36839;SDS011;24406;51.640;9.566;2023-04-25T04:39:53;14.52;;;11.57;;
36839;SDS011;24406;51.640;9.566;2023-04-25T04:45:11;13.23;;;11.32;;
36839;SDS011;24406;51.640;9.566;2023-04-25T04:50:23;14.23;;;11.23;;
36839;SDS011;24406;51.640;9.566;2023-04-25T04:55:44;14.65;;;10.80;;
36839;SDS011;24406;51.640;9.566;2023-04-25T05:01:02;16.23;;;11.90;;
36839;SDS011;24406;51.640;9.566;2023-04-25T05:06:34;12.80;;;9.52;;
36839;SDS011;24406;51.640;9.566;2023-04-25T05:12:04;11.07;;;8.32;;
36839;SDS011;24406;51.640;9.566;2023-04-25T05:17:26;11.88;;;7.30;;
36839;SDS011;24406;51.640;9.566;2023-04-25T05:22:42;15.40;;;7.13;;
36839;SDS011;24406;51.640;9.566;2023-04-25T05:27:50;14.73;;;6.82;;
36839;SDS011;24406;51.640;9.566;2023-04-25T05:33:11;9.55;;;5.70;;
36839;SDS011;24406;51.640;9.566;2023-04-25T05:38:12;15.98;;;7.18;;
36839;SDS011;24406;51.640;9.566;2023-04-25T05:43:38;14.55;;;6.20;;
36839;SDS011;24406;51.640;9.566;2023-04-25T05:48:58;12.68;;;5.90;;
36839;SDS011;24406;51.640;9.566;2023-04-25T05:54:18;16.67;;;6.05;;
36839;SDS011;24406;51.640;9.566;2023-04-25T05:59:23;15.32;;;7.65;;
36839;SDS011;24406;51.640;9.566;2023-04-25T06:09:31;15.43;;;5.60;;
36839;SDS011;24406;51.640;9.566;2023-04-25T06:14:34;22.92;;;6.53;;
36839;SDS011;24406;51.640;9.566;2023-04-25T06:19:36;23.33;;;7.25;;
36839;SDS011;24406;51.640;9.566;2023-04-25T06:24:38;14.27;;;5.50;;
36839;SDS011;24406;51.640;9.566;2023-04-25T06:29:41;12.93;;;5.88;;
36839;SDS011;24406;51.640;9.566;2023-04-25T06:34:43;18.55;;;5.63;;
36839;SDS011;24406;51.640;9.566;2023-04-25T06:39:46;21.92;;;6.97;;
36839;SDS011;24406;51.640;9.566;2023-04-25T06:44:50;10.80;;;4.85;;
36839;SDS011;24406;51.640;9.566;2023-04-25T06:49:53;14.80;;;4.95;;
36839;SDS011;24406;51.640;9.566;2023-04-25T06:54:55;19.00;;;4.57;;
36839;SDS011;24406;51.640;9.566;2023-04-25T07:00:31;14.50;;;4.43;;
36839;SDS011;24406;51.640;9.566;2023-04-25T07:05:36;15.48;;;4.15;;
36839;SDS011;24406;51.640;9.566;2023-04-25T07:10:39;22.42;;;4.82;;
36839;SDS011;24406;51.640;9.566;2023-04-25T07:15:42;17.20;;;6.35;;
36839;SDS011;24406;51.640;9.566;2023-04-25T07:20:45;19.65;;;5.47;;
36839;SDS011;24406;51.640;9.566;2023-04-25T07:25:47;19.85;;;6.07;;
36839;SDS011;24406;51.640;9.566;2023-04-25T07:30:55;17.63;;;5.50;;
36839;SDS011;24406;51.640;9.566;2023-04-25T07:35:58;14.98;;;5.13;;
36839;SDS011;24406;51.640;9.566;2023-04-25T07:41:00;13.13;;;5.18;;
36839;SDS011;24406;51.640;9.566;2023-04-25T07:46:03;15.70;;;5.60;;
36839;SDS011;24406;51.640;9.566;2023-04-25T07:51:07;16.17;;;5.10;;
36839;SDS011;24406;51.640;9.566;2023-04-25T07:56:11;17.15;;;5.55;;
36839;SDS011;24406;51.640;9.566;2023-04-25T08:01:17;12.32;;;4.72;;
36839;SDS011;24406;51.640;9.566;2023-04-25T08:06:30;10.02;;;4.60;;
36839;SDS011;24406;51.640;9.566;2023-04-25T08:11:41;14.05;;;4.03;;
36839;SDS011;24406;51.640;9.566;2023-04-25T08:16:47;12.95;;;4.22;;
36839;SDS011;24406;51.640;9.566;2023-04-25T08:21:49;14.23;;;4.65;;
36839;SDS011;24406;51.640;9.566;2023-04-25T08:26:56;15.15;;;4.95;;
36839;SDS011;24406;51.640;9.566;2023-04-25T08:32:02;18.58;;;4.38;;
36839;SDS011;24406;51.640;9.566;2023-04-25T08:37:05;12.80;;;4.22;;
36839;SDS011;24406;51.640;9.566;2023-04-25T08:42:25;14.10;;;4.22;;
36839;SDS011;24406;51.640;9.566;2023-04-25T08:47:29;11.15;;;3.53;;
36839;SDS011;24406;51.640;9.566;2023-04-25T08:52:34;9.02;;;3.70;;
36839;SDS011;24406;51.640;9.566;2023-04-25T08:57:37;10.35;;;3.20;;
36839;SDS011;24406;51.640;9.566;2023-04-25T09:02:40;8.70;;;3.53;;
36839;SDS011;24406;51.640;9.566;2023-04-25T09:07:43;9.73;;;3.03;;
36839;SDS011;24406;51.640;9.566;2023-04-25T09:12:53;7.50;;;2.72;;
36839;SDS011;24406;51.640;9.566;2023-04-25T09:18:05;15.70;;;4.75;;
36839;SDS011;24406;51.640;9.566;2023-04-25T09:23:11;18.33;;;5.55;;
36839;SDS011;24406;51.640;9.566;2023-04-25T09:28:13;15.45;;;5.00;;
36839;SDS011;24406;51.640;9.566;2023-04-25T09:33:17;11.50;;;3.92;;
36839;SDS011;24406;51.640;9.566;2023-04-25T09:38:22;13.52;;;3.47;;
36839;SDS011;24406;51.640;9.566;2023-04-25T09:43:24;7.70;;;3.58;;
36839;SDS011;24406;51.640;9.566;2023-04-25T09:48:29;14.23;;;4.07;;
36839;SDS011;24406;51.640;9.566;2023-04-25T09:53:34;15.63;;;5.43;;
36839;SDS011;24406;51.640;9.566;2023-04-25T09:58:47;13.38;;;3.97;;
36839;SDS011;24406;51.640;9.566;2023-04-25T10:03:50;8.65;;;3.35;;
36839;SDS011;24406;51.640;9.566;2023-04-25T10:09:14;11.30;;;2.83;;
36839;SDS011;24406;51.640;9.566;2023-04-25T10:14:18;11.40;;;4.05;;
36839;SDS011;24406;51.640;9.566;2023-04-25T10:19:21;11.30;;;2.92;;
36839;SDS011;24406;51.640;9.566;2023-04-25T10:24:24;5.28;;;2.53;;
36839;SDS011;24406;51.640;9.566;2023-04-25T10:29:26;6.28;;;2.53;;
36839;SDS011;24406;51.640;9.566;2023-04-25T10:34:39;15.48;;;3.15;;
36839;SDS011;24406;51.640;9.566;2023-04-25T10:39:41;7.60;;;3.30;;
36839;SDS011;24406;51.640;9.566;2023-04-25T10:44:47;9.65;;;3.85;;
36839;SDS011;24406;51.640;9.566;2023-04-25T10:50:06;7.05;;;2.53;;
36839;SDS011;24406;51.640;9.566;2023-04-25T10:55:09;7.72;;;3.05;;
36839;SDS011;24406;51.640;9.566;2023-04-25T11:00:12;7.88;;;2.53;;
36839;SDS011;24406;51.640;9.566;2023-04-25T11:05:29;5.20;;;2.38;;
36839;SDS011;24406;51.640;9.566;2023-04-25T11:10:33;9.70;;;3.03;;
36839;SDS011;24406;51.640;9.566;2023-04-25T11:15:35;6.93;;;2.63;;
36839;SDS011;24406;51.640;9.566;2023-04-25T11:20:38;8.10;;;2.33;;
36839;SDS011;24406;51.640;9.566;2023-04-25T11:25:39;7.40;;;2.15;;
36839;SDS011;24406;51.640;9.566;2023-04-25T11:30:47;5.53;;;2.80;;
36839;SDS011;24406;51.640;9.566;2023-04-25T11:35:50;5.50;;;2.55;;
36839;SDS011;24406;51.640;9.566;2023-04-25T11:40:53;6.47;;;2.85;;
36839;SDS011;24406;51.640;9.566;2023-04-25T11:45:55;7.68;;;2.38;;
36839;SDS011;24406;51.640;9.566;2023-04-25T11:50:59;10.68;;;3.53;;
36839;SDS011;24406;51.640;9.566;2023-04-25T11:56:01;6.85;;;3.70;;
36839;SDS011;24406;51.640;9.566;2023-04-25T12:01:03;6.65;;;2.92;;
36839;SDS011;24406;51.640;9.566;2023-04-25T12:06:06;6.63;;;3.33;;
36839;SDS011;24406;51.640;9.566;2023-04-25T12:11:18;7.63;;;2.72;;
36839;SDS011;24406;51.640;9.566;2023-04-25T12:16:21;8.00;;;3.55;;
36839;SDS011;24406;51.640;9.566;2023-04-25T12:21:24;7.07;;;2.72;;
36839;SDS011;24406;51.640;9.566;2023-04-25T12:31:53;7.82;;;2.85;;
36839;SDS011;24406;51.640;9.566;2023-04-25T12:36:56;4.22;;;1.98;;
36839;SDS011;24406;51.640;9.566;2023-04-25T12:41:57;3.10;;;1.75;;
36839;SDS011;24406;51.640;9.566;2023-04-25T12:47:01;3.88;;;1.55;;
36839;SDS011;24406;51.640;9.566;2023-04-25T12:52:04;3.28;;;2.10;;
36839;SDS011;24406;51.640;9.566;2023-04-25T12:57:05;6.45;;;1.88;;
36839;SDS011;24406;51.640;9.566;2023-04-25T13:02:07;7.32;;;2.60;;
36839;SDS011;24406;51.640;9.566;2023-04-25T13:07:10;4.55;;;2.13;;
36839;SDS011;24406;51.640;9.566;2023-04-25T13:12:11;5.93;;;2.30;;
36839;SDS011;24406;51.640;9.566;2023-04-25T13:17:13;6.15;;;2.28;;
36839;SDS011;24406;51.640;9.566;2023-04-25T13:22:16;8.55;;;1.90;;
36839;SDS011;24406;51.640;9.566;2023-04-25T13:27:20;4.93;;;2.00;;
36839;SDS011;24406;51.640;9.566;2023-04-25T13:32:22;5.00;;;1.67;;
36839;SDS011;24406;51.640;9.566;2023-04-25T13:37:25;3.92;;;1.50;;
36839;SDS011;24406;51.640;9.566;2023-04-25T13:42:26;5.07;;;1.67;;
36839;SDS011;24406;51.640;9.566;2023-04-25T13:47:28;3.03;;;1.45;;
36839;SDS011;24406;51.640;9.566;2023-04-25T13:52:33;4.25;;;2.13;;
36839;SDS011;24406;51.640;9.566;2023-04-25T13:57:35;3.00;;;1.70;;
36839;SDS011;24406;51.640;9.566;2023-04-25T14:02:37;6.32;;;2.30;;
36839;SDS011;24406;51.640;9.566;2023-04-25T14:07:40;6.00;;;2.55;;
36839;SDS011;24406;51.640;9.566;2023-04-25T14:12:41;4.95;;;2.50;;
36839;SDS011;24406;51.640;9.566;2023-04-25T14:17:43;6.07;;;2.75;;
36839;SDS011;24406;51.640;9.566;2023-04-25T14:22:47;4.25;;;2.30;;
36839;SDS011;24406;51.640;9.566;2023-04-25T14:27:48;3.53;;;1.90;;
36839;SDS011;24406;51.640;9.566;2023-04-25T14:32:50;5.63;;;2.40;;
36839;SDS011;24406;51.640;9.566;2023-04-25T14:37:54;4.07;;;2.08;;
36839;SDS011;24406;51.640;9.566;2023-04-25T14:42:55;5.00;;;2.22;;
36839;SDS011;24406;51.640;9.566;2023-04-25T14:47:57;5.35;;;2.42;;
36839;SDS011;24406;51.640;9.566;2023-04-25T14:53:00;4.82;;;2.10;;
36839;SDS011;24406;51.640;9.566;2023-04-25T14:58:03;10.30;;;2.92;;
36839;SDS011;24406;51.640;9.566;2023-04-25T15:03:05;8.82;;;3.25;;
36839;SDS011;24406;51.640;9.566;2023-04-25T15:08:09;4.82;;;2.40;;
36839;SDS011;24406;51.640;9.566;2023-04-25T15:13:10;8.05;;;2.88;;
36839;SDS011;24406;51.640;9.566;2023-04-25T15:18:12;8.30;;;3.05;;
36839;SDS011;24406;51.640;9.566;2023-04-25T15:23:15;5.05;;;2.00;;
36839;SDS011;24406;51.640;9.566;2023-04-25T15:28:17;9.32;;;2.47;;
36839;SDS011;24406;51.640;9.566;2023-04-25T15:33:21;5.85;;;2.30;;
36839;SDS011;24406;51.640;9.566;2023-04-25T15:38:24;16.70;;;2.60;;
36839;SDS011;24406;51.640;9.566;2023-04-25T15:43:25;4.57;;;1.95;;
36839;SDS011;24406;51.640;9.566;2023-04-25T15:48:27;4.07;;;1.60;;
36839;SDS011;24406;51.640;9.566;2023-04-25T15:53:30;3.38;;;1.15;;
36839;SDS011;24406;51.640;9.566;2023-04-25T15:58:31;2.38;;;1.45;;
36839;SDS011;24406;51.640;9.566;2023-04-25T16:03:33;6.07;;;1.80;;
36839;SDS011;24406;51.640;9.566;2023-04-25T16:08:35;1.92;;;1.73;;
36839;SDS011;24406;51.640;9.566;2023-04-25T16:13:37;4.72;;;1.88;;
36839;SDS011;24406;51.640;9.566;2023-04-25T16:18:38;3.55;;;2.10;;
36839;SDS011;24406;51.640;9.566;2023-04-25T16:23:41;4.88;;;1.55;;
36839;SDS011;24406;51.640;9.566;2023-04-25T16:28:43;3.25;;;1.75;;
36839;SDS011;24406;51.640;9.566;2023-04-25T16:33:45;5.40;;;1.63;;
36839;SDS011;24406;51.640;9.566;2023-04-25T16:38:48;5.05;;;2.22;;
36839;SDS011;24406;51.640;9.566;2023-04-25T16:43:49;4.10;;;2.42;;
36839;SDS011;24406;51.640;9.566;2023-04-25T16:48:51;6.63;;;2.88;;
36839;SDS011;24406;51.640;9.566;2023-04-25T16:53:54;8.82;;;3.10;;
36839;SDS011;24406;51.640;9.566;2023-04-25T16:58:56;4.45;;;2.35;;
36839;SDS011;24406;51.640;9.566;2023-04-25T17:03:57;2.78;;;2.05;;
36839;SDS011;24406;51.640;9.566;2023-04-25T17:09:00;4.95;;;2.65;;
36839;SDS011;24406;51.640;9.566;2023-04-25T17:14:02;3.10;;;2.80;;
36839;SDS011;24406;51.640;9.566;2023-04-25T17:19:03;4.50;;;1.92;;
36839;SDS011;24406;51.640;9.566;2023-04-25T17:24:07;3.85;;;1.83;;
36839;SDS011;24406;51.640;9.566;2023-04-25T17:29:10;4.38;;;2.85;;
36839;SDS011;24406;51.640;9.566;2023-04-25T17:34:12;5.55;;;3.35;;
36839;SDS011;24406;51.640;9.566;2023-04-25T17:39:18;5.50;;;3.53;;
36839;SDS011;24406;51.640;9.566;2023-04-25T17:44:20;4.68;;;2.33;;
36839;SDS011;24406;51.640;9.566;2023-04-25T17:49:22;8.50;;;2.95;;
36839;SDS011;24406;51.640;9.566;2023-04-25T17:54:25;4.50;;;2.70;;
36839;SDS011;24406;51.640;9.566;2023-04-25T17:59:26;4.43;;;2.22;;
36839;SDS011;24406;51.640;9.566;2023-04-25T18:04:28;6.30;;;3.38;;
36839;SDS011;24406;51.640;9.566;2023-04-25T18:09:31;7.75;;;3.70;;
36839;SDS011;24406;51.640;9.566;2023-04-25T18:14:33;7.95;;;4.72;;
36839;SDS011;24406;51.640;9.566;2023-04-25T18:19:37;5.32;;;3.03;;
36839;SDS011;24406;51.640;9.566;2023-04-25T18:24:40;4.53;;;2.75;;
36839;SDS011;24406;51.640;9.566;2023-04-25T18:29:43;3.83;;;2.97;;
36839;SDS011;24406;51.640;9.566;2023-04-25T18:34:45;5.35;;;2.65;;
36839;SDS011;24406;51.640;9.566;2023-04-25T18:39:50;4.68;;;2.90;;
36839;SDS011;24406;51.640;9.566;2023-04-25T18:44:52;5.20;;;3.78;;
36839;SDS011;24406;51.640;9.566;2023-04-25T18:49:53;4.22;;;3.03;;
36839;SDS011;24406;51.640;9.566;2023-04-25T18:54:56;4.65;;;2.30;;
36839;SDS011;24406;51.640;9.566;2023-04-25T18:59:57;3.42;;;1.90;;
36839;SDS011;24406;51.640;9.566;2023-04-25T19:05:04;4.60;;;1.95;;
36839;SDS011;24406;51.640;9.566;2023-04-25T19:10:08;4.00;;;2.42;;
36839;SDS011;24406;51.640;9.566;2023-04-25T19:15:10;4.00;;;2.72;;
36839;SDS011;24406;51.640;9.566;2023-04-25T19:20:11;6.30;;;2.53;;
36839;SDS011;24406;51.640;9.566;2023-04-25T19:25:14;7.57;;;2.63;;
36839;SDS011;24406;51.640;9.566;2023-04-25T19:30:16;7.93;;;2.53;;
36839;SDS011;24406;51.640;9.566;2023-04-25T19:35:17;5.18;;;2.05;;
36839;SDS011;24406;51.640;9.566;2023-04-25T19:40:20;4.55;;;2.38;;
36839;SDS011;24406;51.640;9.566;2023-04-25T19:45:22;4.07;;;2.03;;
36839;SDS011;24406;51.640;9.566;2023-04-25T19:50:24;3.63;;;1.95;;
36839;SDS011;24406;51.640;9.566;2023-04-25T19:55:27;3.97;;;2.33;;
36839;SDS011;24406;51.640;9.566;2023-04-25T20:00:28;6.72;;;1.95;;
36839;SDS011;24406;51.640;9.566;2023-04-25T20:05:30;4.13;;;2.63;;
36839;SDS011;24406;51.640;9.566;2023-04-25T20:10:33;5.70;;;2.90;;
36839;SDS011;24406;51.640;9.566;2023-04-25T20:15:35;7.93;;;3.40;;
36839;SDS011;24406;51.640;9.566;2023-04-25T20:20:37;4.63;;;2.40;;
36839;SDS011;24406;51.640;9.566;2023-04-25T20:25:39;4.35;;;3.10;;
36839;SDS011;24406;51.640;9.566;2023-04-25T20:30:42;8.88;;;4.50;;
36839;SDS011;24406;51.640;9.566;2023-04-25T20:35:44;8.05;;;3.80;;
36839;SDS011;24406;51.640;9.566;2023-04-25T20:40:47;3.20;;;2.30;;
36839;SDS011;24406;51.640;9.566;2023-04-25T20:45:50;5.85;;;2.40;;
36839;SDS011;24406;51.640;9.566;2023-04-25T20:50:52;6.07;;;2.05;;
36839;SDS011;24406;51.640;9.566;2023-04-25T20:55:55;4.10;;;2.70;;
36839;SDS011;24406;51.640;9.566;2023-04-25T21:00:56;5.10;;;2.50;;
36839;SDS011;24406;51.640;9.566;2023-04-25T21:05:58;7.18;;;2.63;;
36839;SDS011;24406;51.640;9.566;2023-04-25T21:11:01;8.98;;;2.58;;
36839;SDS011;24406;51.640;9.566;2023-04-25T21:16:03;3.88;;;2.20;;
36839;SDS011;24406;51.640;9.566;2023-04-25T21:21:05;8.85;;;2.40;;
36839;SDS011;24406;51.640;9.566;2023-04-25T21:26:08;3.83;;;2.55;;
36839;SDS011;24406;51.640;9.566;2023-04-25T21:31:10;2.63;;;2.42;;
36839;SDS011;24406;51.640;9.566;2023-04-25T21:36:11;5.03;;;2.10;;
36839;SDS011;24406;51.640;9.566;2023-04-25T21:41:14;4.97;;;2.40;;
36839;SDS011;24406;51.640;9.566;2023-04-25T21:46:16;3.47;;;2.20;;
36839;SDS011;24406;51.640;9.566;2023-04-25T21:51:17;4.53;;;2.20;;
36839;SDS011;24406;51.640;9.566;2023-04-25T21:56:20;5.25;;;2.38;;
36839;SDS011;24406;51.640;9.566;2023-04-25T22:01:22;5.20;;;2.40;;
36839;SDS011;24406;51.640;9.566;2023-04-25T22:06:26;6.00;;;3.03;;
36839;SDS011;24406;51.640;9.566;2023-04-25T22:11:30;2.92;;;2.30;;
36839;SDS011;24406;51.640;9.566;2023-04-25T22:16:31;4.45;;;2.40;;
36839;SDS011;24406;51.640;9.566;2023-04-25T22:21:33;5.15;;;3.22;;
36839;SDS011;24406;51.640;9.566;2023-04-25T22:26:36;5.10;;;2.67;;
36839;SDS011;24406;51.640;9.566;2023-04-25T22:31:37;5.43;;;2.65;;
36839;SDS011;24406;51.640;9.566;2023-04-25T22:36:39;5.28;;;2.78;;
36839;SDS011;24406;51.640;9.566;2023-04-25T22:41:41;5.30;;;2.63;;
36839;SDS011;24406;51.640;9.566;2023-04-25T22:46:43;5.90;;;2.67;;
36839;SDS011;24406;51.640;9.566;2023-04-25T22:51:44;6.47;;;2.75;;
36839;SDS011;24406;51.640;9.566;2023-04-25T22:56:49;3.45;;;2.65;;
36839;SDS011;24406;51.640;9.566;2023-04-25T23:01:51;5.28;;;2.97;;
36839;SDS011;24406;51.640;9.566;2023-04-25T23:06:55;9.60;;;4.28;;
36839;SDS011;24406;51.640;9.566;2023-04-25T23:11:58;6.38;;;2.97;;
36839;SDS011;24406;51.640;9.566;2023-04-25T23:17:01;9.15;;;4.18;;
36839;SDS011;24406;51.640;9.566;2023-04-25T23:22:04;9.38;;;3.70;;
36839;SDS011;24406;51.640;9.566;2023-04-25T23:27:07;5.68;;;3.85;;
36839;SDS011;24406;51.640;9.566;2023-04-25T23:32:08;5.05;;;3.55;;
36839;SDS011;24406;51.640;9.566;2023-04-25T23:37:11;4.70;;;2.92;;
36839;SDS011;24406;51.640;9.566;2023-04-25T23:42:14;4.15;;;3.50;;
36839;SDS011;24406;51.640;9.566;2023-04-25T23:47:16;13.52;;;3.65;;
36839;SDS011;24406;51.640;9.566;2023-04-25T23:52:18;5.55;;;3.13;;
36839;SDS011;24406;51.640;9.566;2023-04-25T23:57:21;8.60;;;3.50;;
